TimeCDT,TemperatureF,Dew PointF,Humidity,Sea Level PressureIn,VisibilityMPH,Wind Direction,Wind SpeedMPH,Gust SpeedMPH,PrecipitationIn,Events,Conditions,WindDirDegrees,DateUTC
12:53 AM,46.9,39.0,74,29.91,10.0,NW,13.8,21.9,N/A,,Clear,310,2013-10-21 05:53:00
1:33 AM,44.6,37.4,76,29.93,10.0,NNW,9.2,-,N/A,,Mostly Cloudy,330,2013-10-21 06:33:00
1:51 AM,42.8,35.6,76,29.94,10.0,NNW,16.1,-,N/A,,Scattered Clouds,330,2013-10-21 06:51:00
1:53 AM,42.1,36.0,79,29.95,10.0,NNW,16.1,-,N/A,,Scattered Clouds,330,2013-10-21 06:53:00
2:53 AM,39.9,34.0,79,29.97,10.0,NW,11.5,-,N/A,,Partly Cloudy,310,2013-10-21 07:53:00
3:07 AM,41.0,33.8,76,29.96,10.0,NW,12.7,-,N/A,,Mostly Cloudy,310,2013-10-21 08:07:00
3:53 AM,42.1,33.1,70,29.98,10.0,NW,11.5,-,N/A,,Overcast,320,2013-10-21 08:53:00
4:53 AM,39.0,28.9,67,30.01,10.0,NNW,12.7,-,N/A,,Overcast,330,2013-10-21 09:53:00
5:43 AM,35.6,28.4,75,30.00,10.0,NW,8.1,-,N/A,,Scattered Clouds,320,2013-10-21 10:43:00
5:53 AM,34.0,28.0,79,30.01,10.0,NW,6.9,-,N/A,,Clear,310,2013-10-21 10:53:00
6:53 AM,32.0,28.0,85,30.03,10.0,West,4.6,-,N/A,,Scattered Clouds,280,2013-10-21 11:53:00
7:53 AM,35.1,30.0,82,30.05,10.0,NW,8.1,-,N/A,,Clear,310,2013-10-21 12:53:00
8:53 AM,39.0,30.0,70,30.07,10.0,NW,10.4,-,N/A,,Mostly Cloudy,320,2013-10-21 13:53:00
9:53 AM,42.1,27.0,55,30.07,10.0,NNW,15.0,23.0,N/A,,Partly Cloudy,330,2013-10-21 14:53:00
10:53 AM,43.0,24.1,47,30.08,10.0,NW,13.8,20.7,N/A,,Clear,310,2013-10-21 15:53:00
11:53 AM,45.0,23.0,42,30.07,10.0,NW,15.0,23.0,N/A,,Clear,320,2013-10-21 16:53:00
12:53 PM,46.0,23.0,40,30.06,10.0,WNW,11.5,21.9,N/A,,Partly Cloudy,300,2013-10-21 17:53:00
1:53 PM,48.0,23.0,37,30.04,10.0,NW,16.1,29.9,N/A,,Clear,320,2013-10-21 18:53:00
2:53 PM,48.0,24.1,39,30.01,10.0,WNW,11.5,-,N/A,,Clear,290,2013-10-21 19:53:00
3:53 PM,48.9,25.0,39,30.01,6.0,West,9.2,16.1,N/A,,Haze,280,2013-10-21 20:53:00
4:53 PM,50.0,27.0,41,30.00,7.0,WNW,11.5,18.4,N/A,,Mostly Cloudy,290,2013-10-21 21:53:00
5:53 PM,46.9,28.0,48,30.02,5.0,West,9.2,-,N/A,,Haze,270,2013-10-21 22:53:00
6:53 PM,43.0,28.9,58,30.03,6.0,West,4.6,-,N/A,,Haze,280,2013-10-21 23:53:00
7:53 PM,42.1,28.0,58,30.03,10.0,West,5.8,-,N/A,,Overcast,260,2013-10-22 00:53:00
8:53 PM,37.9,27.0,65,30.02,10.0,SW,4.6,-,N/A,,Clear,230,2013-10-22 01:53:00
9:53 PM,34.0,26.1,73,30.03,10.0,SW,3.5,-,N/A,,Clear,230,2013-10-22 02:53:00
10:53 PM,39.0,30.0,70,30.02,10.0,Calm,Calm,-,N/A,,Overcast,0,2013-10-22 03:53:00
11:53 PM,39.0,30.0,70,30.01,10.0,Calm,Calm,-,N/A,,Overcast,0,2013-10-22 04:53:00